createdAt,value
2022-10-18T00:02:11.169Z,7.25
2022-10-18T00:04:37.970Z,5.50
2022-10-18T00:07:04.659Z,5.85
2022-10-18T00:09:31.431Z,6.70
2022-10-18T00:11:58.004Z,11.40
2022-10-18T00:14:24.551Z,6.45
2022-10-18T00:16:51.046Z,5.63
2022-10-18T00:19:18.946Z,6.88
2022-10-18T00:24:16.855Z,9.57
2022-10-18T00:26:43.469Z,5.22
2022-10-18T00:29:13.812Z,4.70
2022-10-18T00:31:40.321Z,9.38
2022-10-18T00:34:10.006Z,6.15
2022-10-18T00:36:38.012Z,7.72
2022-10-18T00:39:06.158Z,6.35
2022-10-18T00:41:34.248Z,6.97
2022-10-18T00:44:04.299Z,7.97
2022-10-18T00:46:32.496Z,5.70
2022-10-18T00:49:01.799Z,5.40
2022-10-18T00:51:32.481Z,16.13
2022-10-18T00:54:00.480Z,5.17
2022-10-18T00:56:27.022Z,3.75
2022-10-18T00:58:53.931Z,5.65
2022-10-18T01:01:24.416Z,4.95
2022-10-18T01:03:54.450Z,6.85
2022-10-18T01:06:20.972Z,5.50
2022-10-18T01:09:00.636Z,6.45
2022-10-18T01:11:41.815Z,4.55
2022-10-18T01:14:18.685Z,5.13
2022-10-18T01:16:53.941Z,5.10
2022-10-18T01:20:02.410Z,4.53
2022-10-18T01:22:34.572Z,4.65
2022-10-18T01:25:16.281Z,7.13
2022-10-18T01:30:47.965Z,4.30
2022-10-18T01:33:24.356Z,4.93
2022-10-18T01:35:57.005Z,5.07
2022-10-18T01:38:24.646Z,4.28
2022-10-18T01:40:52.730Z,5.80
2022-10-18T01:43:21.362Z,6.18
2022-10-18T01:45:49.689Z,4.00
2022-10-18T01:48:17.243Z,4.35
2022-10-18T01:50:43.851Z,5.07
2022-10-18T01:53:25.561Z,5.07
2022-10-18T01:58:30.755Z,5.82
2022-10-18T02:01:07.473Z,5.30
2022-10-18T02:03:37.637Z,5.15
2022-10-18T02:06:09.480Z,5.55
2022-10-18T02:08:42.534Z,4.97
2022-10-18T02:11:13.241Z,7.72
2022-10-18T02:13:43.959Z,5.57
2022-10-18T02:16:14.406Z,4.50
2022-10-18T02:18:45.392Z,4.63
2022-10-18T02:21:15.706Z,5.38
2022-10-18T02:23:44.895Z,7.60
2022-10-18T02:26:11.762Z,6.88
2022-10-18T02:28:38.782Z,4.00
2022-10-18T02:31:13.355Z,4.78
2022-10-18T02:33:48.982Z,4.20
2022-10-18T02:36:23.834Z,5.53
2022-10-18T02:38:55.926Z,6.22
2022-10-18T02:41:24.201Z,7.60
2022-10-18T02:43:50.731Z,4.38
2022-10-18T02:46:17.518Z,4.45
2022-10-18T02:48:45.851Z,7.45
2022-10-18T02:51:12.405Z,9.15
2022-10-18T02:53:38.912Z,7.82
2022-10-18T02:56:05.817Z,6.85
2022-10-18T02:58:32.355Z,4.90
2022-10-18T03:00:58.966Z,6.47
2022-10-18T03:03:25.536Z,5.97
2022-10-18T03:05:53.431Z,6.72
2022-10-18T03:08:19.980Z,5.40
2022-10-18T03:10:47.011Z,5.20
2022-10-18T03:13:13.541Z,6.88
2022-10-18T03:15:40.210Z,6.35
2022-10-18T03:18:06.749Z,8.07
2022-10-18T03:20:33.827Z,7.60
2022-10-18T03:23:01.814Z,6.30
2022-10-18T03:25:28.386Z,6.75
2022-10-18T03:27:54.929Z,8.82
2022-10-18T03:30:21.517Z,7.15
2022-10-18T03:32:48.070Z,8.35
2022-10-18T03:35:14.643Z,7.90
2022-10-18T03:37:41.175Z,7.40
2022-10-18T03:40:10.007Z,6.13
2022-10-18T03:42:36.699Z,6.22
2022-10-18T03:45:04.080Z,7.13
2022-10-18T03:47:30.806Z,7.13
2022-10-18T03:49:57.547Z,6.22
2022-10-18T03:52:24.378Z,6.25
2022-10-18T03:54:50.955Z,5.63
2022-10-18T03:57:18.793Z,8.02
2022-10-18T03:59:45.348Z,6.15
2022-10-18T04:02:11.836Z,5.05
2022-10-18T04:04:38.369Z,6.25
2022-10-18T04:07:05.291Z,5.13
2022-10-18T04:09:31.894Z,5.72
2022-10-18T04:11:58.423Z,5.43
2022-10-18T04:14:27.278Z,4.90
2022-10-18T04:16:53.771Z,4.97
2022-10-18T04:19:20.350Z,5.93
2022-10-18T04:21:46.888Z,7.40
2022-10-18T04:24:13.518Z,6.00
2022-10-18T04:26:39.994Z,9.85
2022-10-18T04:29:06.750Z,5.05
2022-10-18T04:31:34.683Z,5.50
2022-10-18T04:34:01.286Z,6.35
2022-10-18T04:36:27.802Z,7.25
2022-10-18T04:38:54.370Z,5.40
2022-10-18T04:41:20.887Z,5.13
2022-10-18T04:43:47.520Z,4.63
2022-10-18T04:46:14.019Z,4.82
2022-10-18T04:48:42.025Z,5.35
2022-10-18T04:51:08.553Z,5.03
2022-10-18T04:53:35.102Z,5.15
2022-10-18T04:56:01.661Z,4.90
2022-10-18T04:58:28.294Z,6.88
2022-10-18T05:00:54.930Z,5.68
2022-10-18T05:03:21.487Z,5.72
2022-10-18T05:06:01.448Z,6.75
2022-10-18T05:08:29.376Z,6.80
2022-10-18T05:10:56.018Z,5.18
2022-10-18T05:13:22.566Z,9.98
2022-10-18T05:15:49.085Z,10.65
2022-10-18T05:18:15.823Z,5.78
2022-10-18T05:20:42.349Z,6.90
2022-10-18T05:23:10.529Z,6.75
2022-10-18T05:25:38.253Z,7.57
2022-10-18T05:28:10.950Z,8.75
2022-10-18T05:30:42.860Z,8.20
2022-10-18T05:33:09.688Z,6.32
2022-10-18T05:35:36.680Z,9.23
2022-10-18T05:38:04.231Z,7.50
2022-10-18T05:40:32.290Z,6.78
2022-10-18T05:42:58.873Z,7.00
2022-10-18T05:45:25.559Z,7.20
2022-10-18T05:47:52.083Z,6.53
2022-10-18T05:50:18.667Z,8.00
2022-10-18T05:52:45.186Z,11.60
2022-10-18T05:55:11.742Z,24.30
2022-10-18T05:57:39.596Z,6.47
2022-10-18T06:00:07.200Z,11.75
2022-10-18T06:02:38.347Z,8.95
2022-10-18T06:05:05.275Z,6.00
2022-10-18T06:07:32.047Z,5.38
2022-10-18T06:09:58.793Z,5.00
2022-10-18T06:12:25.334Z,5.55
2022-10-18T06:14:53.295Z,8.75
2022-10-18T06:17:19.802Z,6.50
2022-10-18T06:19:46.351Z,6.15
2022-10-18T06:22:12.848Z,8.95
2022-10-18T06:24:39.427Z,7.05
2022-10-18T06:29:38.274Z,5.88
2022-10-18T06:32:07.561Z,5.30
2022-10-18T06:34:34.458Z,7.32
2022-10-18T06:37:01.110Z,4.82
2022-10-18T06:39:27.700Z,4.80
2022-10-18T06:41:54.220Z,7.55
2022-10-18T06:44:21.521Z,6.63
2022-10-18T06:46:49.103Z,7.75
2022-10-18T06:49:19.133Z,9.10
2022-10-18T06:51:46.240Z,5.47
2022-10-18T06:54:18.115Z,8.77
2022-10-18T06:56:45.589Z,14.45
2022-10-18T06:59:12.259Z,12.50
2022-10-18T07:01:38.948Z,9.95
2022-10-18T07:04:05.541Z,6.68
2022-10-18T07:06:33.454Z,6.63
2022-10-18T07:08:59.982Z,7.72
2022-10-18T07:11:27.266Z,6.80
2022-10-18T07:13:58.293Z,4.28
2022-10-18T07:16:24.849Z,5.25
2022-10-18T07:18:51.806Z,5.35
2022-10-18T07:21:20.055Z,6.22
2022-10-18T07:23:48.495Z,5.45
2022-10-18T07:26:17.731Z,6.18
2022-10-18T07:28:47.133Z,5.47
2022-10-18T07:31:13.818Z,8.30
2022-10-18T07:33:40.589Z,7.28
2022-10-18T07:36:09.193Z,7.75
2022-10-18T07:38:35.999Z,5.53
2022-10-18T07:41:05.478Z,6.85
2022-10-18T07:43:32.892Z,19.90
2022-10-18T07:46:01.488Z,10.75
2022-10-18T07:48:28.202Z,8.00
2022-10-18T07:50:57.525Z,8.65
2022-10-18T07:53:24.145Z,10.73
2022-10-18T07:55:50.810Z,13.77
2022-10-18T07:58:18.661Z,10.27
2022-10-18T08:00:45.212Z,6.57
2022-10-18T08:03:11.703Z,7.07
2022-10-18T08:05:38.299Z,8.82
2022-10-18T08:08:07.897Z,8.32
2022-10-18T08:10:35.611Z,8.13
2022-10-18T08:13:02.113Z,5.90
2022-10-18T08:15:29.988Z,9.30
2022-10-18T08:17:56.493Z,5.97
2022-10-18T08:20:31.344Z,8.82
2022-10-18T08:23:00.456Z,11.65
2022-10-18T08:25:27.685Z,9.32
2022-10-18T08:27:54.318Z,8.25
2022-10-18T08:30:20.841Z,7.60
2022-10-18T08:32:48.925Z,7.20
2022-10-18T08:35:15.461Z,8.30
2022-10-18T08:37:42.024Z,6.95
2022-10-18T08:40:12.693Z,8.25
2022-10-18T08:42:58.921Z,7.90
2022-10-18T08:45:42.084Z,8.65
2022-10-18T08:48:19.886Z,7.38
2022-10-18T08:50:46.849Z,9.68
2022-10-18T08:53:19.074Z,11.73
2022-10-18T08:55:49.703Z,8.13
2022-10-18T08:58:19.801Z,11.25
2022-10-18T09:00:54.478Z,11.88
2022-10-18T09:03:38.308Z,11.18
2022-10-18T09:06:19.844Z,9.57
2022-10-18T09:09:01.146Z,12.40
2022-10-18T09:11:44.379Z,8.65
2022-10-18T09:14:56.984Z,12.30
2022-10-18T09:17:30.693Z,8.57
2022-10-18T09:20:11.560Z,9.05
2022-10-18T09:22:51.017Z,10.82
2022-10-18T09:25:20.136Z,7.40
2022-10-18T09:27:52.948Z,8.82
2022-10-18T09:30:37.718Z,8.52
2022-10-18T09:33:17.121Z,8.38
2022-10-18T09:35:53.525Z,9.00
2022-10-18T09:38:26.359Z,11.25
2022-10-18T09:40:58.109Z,12.23
2022-10-18T09:43:33.504Z,9.88
2022-10-18T09:46:00.170Z,17.10
2022-10-18T09:48:29.196Z,14.85
2022-10-18T09:51:03.226Z,10.35
2022-10-18T09:53:36.944Z,9.02
2022-10-18T09:56:06.804Z,11.63
2022-10-18T09:58:42.993Z,9.55
2022-10-18T10:01:12.489Z,11.27
2022-10-18T10:03:39.365Z,12.13
2022-10-18T10:06:25.082Z,12.38
2022-10-18T10:08:57.230Z,10.40
2022-10-18T10:11:29.457Z,10.95
2022-10-18T10:13:57.951Z,12.10
2022-10-18T10:16:26.558Z,11.20
2022-10-18T10:18:54.108Z,10.98
2022-10-18T10:21:22.106Z,9.25
2022-10-18T10:23:53.636Z,9.90
2022-10-18T10:28:49.251Z,8.82
2022-10-18T10:31:27.539Z,7.55
2022-10-18T10:34:00.770Z,11.38
2022-10-18T10:36:30.191Z,10.20
2022-10-18T10:39:04.973Z,9.30
2022-10-18T10:44:13.874Z,8.57
2022-10-18T10:46:40.509Z,9.18
2022-10-18T10:49:39.212Z,9.55
2022-10-18T10:52:25.851Z,10.00
2022-10-18T10:55:05.427Z,10.55
2022-10-18T10:57:38.594Z,12.68
2022-10-18T11:00:05.883Z,11.25
2022-10-18T11:02:34.626Z,15.15
2022-10-18T11:05:16.558Z,9.73
2022-10-18T11:07:46.256Z,15.40
2022-10-18T11:10:16.262Z,12.20
2022-10-18T11:12:44.924Z,11.98
2022-10-18T11:15:20.737Z,8.88
2022-10-18T11:17:56.355Z,9.48
2022-10-18T11:20:28.282Z,13.05
2022-10-18T11:23:02.732Z,10.88
2022-10-18T11:25:46.039Z,9.75
2022-10-18T11:28:19.499Z,10.10
2022-10-18T11:30:59.494Z,10.05
2022-10-18T11:34:03.397Z,9.68
2022-10-18T11:36:31.263Z,8.63
2022-10-18T11:39:08.934Z,9.43
2022-10-18T11:41:38.617Z,7.00
2022-10-18T11:44:18.827Z,8.90
2022-10-18T11:46:56.017Z,8.82
2022-10-18T11:49:45.219Z,10.15
2022-10-18T11:52:21.558Z,8.05
2022-10-18T11:55:04.933Z,9.32
2022-10-18T11:57:43.128Z,6.72
2022-10-18T12:00:22.380Z,5.75
2022-10-18T12:03:10.747Z,7.03
2022-10-18T12:05:39.345Z,7.10
2022-10-18T12:08:10.517Z,5.85
2022-10-18T12:10:59.909Z,5.70
2022-10-18T12:13:35.955Z,8.63
2022-10-18T12:16:04.979Z,5.40
2022-10-18T12:18:32.722Z,6.93
2022-10-18T12:21:00.822Z,7.22
2022-10-18T12:23:37.104Z,6.40
2022-10-18T12:26:07.602Z,6.18
2022-10-18T12:28:44.288Z,7.72
2022-10-18T12:31:20.561Z,6.30
2022-10-18T12:33:50.663Z,6.68
2022-10-18T12:36:35.711Z,5.65
2022-10-18T12:39:06.750Z,7.40
2022-10-18T12:41:35.932Z,11.38
2022-10-18T12:44:05.864Z,8.10
2022-10-18T12:46:47.080Z,8.07
2022-10-18T12:49:17.516Z,8.07
2022-10-18T12:51:52.624Z,9.73
2022-10-18T12:54:24.362Z,10.73
2022-10-18T12:56:52.564Z,7.85
2022-10-18T12:59:42.697Z,9.15
2022-10-18T13:02:20.719Z,8.57
2022-10-18T13:04:47.549Z,7.65
2022-10-18T13:07:21.678Z,8.52
2022-10-18T13:10:38.721Z,6.80
2022-10-18T13:13:40.542Z,9.15
2022-10-18T13:16:23.933Z,9.43
2022-10-18T13:18:54.936Z,13.02
2022-10-18T13:21:32.193Z,10.32
2022-10-18T13:24:18.157Z,9.43
2022-10-18T13:27:05.101Z,12.18
2022-10-18T13:29:57.143Z,11.20
2022-10-18T13:32:32.693Z,10.90
2022-10-18T13:34:59.833Z,10.18
2022-10-18T13:37:27.427Z,12.65
2022-10-18T13:40:15.456Z,13.98
2022-10-18T13:42:42.101Z,12.00
2022-10-18T13:45:44.374Z,9.40
2022-10-18T13:48:47.289Z,11.00
2022-10-18T13:51:42.774Z,12.05
2022-10-18T13:54:28.589Z,12.50
2022-10-18T13:57:16.723Z,10.90
2022-10-18T14:00:07.508Z,10.95
2022-10-18T14:02:59.925Z,12.75
2022-10-18T14:05:51.563Z,13.65
2022-10-18T14:08:24.393Z,11.23
2022-10-18T14:11:03.545Z,13.63
2022-10-18T14:13:36.690Z,11.95
2022-10-18T14:16:09.449Z,11.68
2022-10-18T14:18:41.050Z,12.90
2022-10-18T14:21:16.923Z,13.68
2022-10-18T14:23:47.968Z,16.17
2022-10-18T14:26:16.616Z,12.65
2022-10-18T14:29:00.272Z,14.57
2022-10-18T14:31:27.968Z,13.80
2022-10-18T14:33:58.404Z,14.35
2022-10-18T14:36:31.613Z,14.85
2022-10-18T14:39:01.509Z,15.65
2022-10-18T14:41:29.807Z,13.23
2022-10-18T14:44:16.658Z,16.50
2022-10-18T14:46:44.965Z,15.20
2022-10-18T14:49:12.737Z,17.02
2022-10-18T14:51:41.813Z,18.30
2022-10-18T14:56:46.424Z,21.40
2022-10-18T14:59:18.124Z,28.38
2022-10-18T15:01:54.377Z,31.52
2022-10-18T15:04:27.654Z,36.45
2022-10-18T15:06:55.818Z,37.65
2022-10-18T15:11:51.731Z,37.65
2022-10-18T15:14:19.788Z,39.75
2022-10-18T15:16:48.743Z,42.47
2022-10-18T15:19:31.417Z,38.85
2022-10-18T15:25:10.945Z,37.60
2022-10-18T15:27:39.483Z,36.67
2022-10-18T15:30:07.309Z,38.75
2022-10-18T15:32:34.225Z,36.47
2022-10-18T15:35:09.655Z,38.42
2022-10-18T15:37:40.329Z,36.38
2022-10-18T15:40:37.608Z,39.53
2022-10-18T15:43:25.858Z,35.13
2022-10-18T15:45:54.003Z,41.45
2022-10-18T15:48:23.558Z,36.00
2022-10-18T15:50:52.425Z,41.17
2022-10-18T15:53:32.544Z,39.42
2022-10-18T15:56:03.448Z,34.88
2022-10-18T15:58:38.958Z,36.28
2022-10-18T16:01:13.377Z,35.42
2022-10-18T16:03:40.271Z,42.83
2022-10-18T16:06:09.931Z,36.60
2022-10-18T16:08:40.127Z,40.28
2022-10-18T16:11:12.721Z,38.80
2022-10-18T16:13:39.500Z,36.58
2022-10-18T16:16:06.837Z,34.28
2022-10-18T16:18:33.425Z,47.50
2022-10-18T16:20:59.963Z,39.65
2022-10-18T16:23:27.742Z,34.72
2022-10-18T16:25:54.721Z,30.42
2022-10-18T16:28:24.516Z,39.42
2022-10-18T16:30:55.505Z,33.25
2022-10-18T16:33:22.324Z,35.80
2022-10-18T16:35:49.226Z,36.63
2022-10-18T16:38:31.223Z,36.78
2022-10-18T16:41:02.380Z,31.05
2022-10-18T16:43:30.378Z,31.23
2022-10-18T16:45:57.052Z,30.00
2022-10-18T16:48:24.921Z,31.67
2022-10-18T16:50:52.735Z,28.58
2022-10-18T16:53:19.339Z,33.75
2022-10-18T16:55:46.009Z,24.38
2022-10-18T16:58:16.337Z,23.30
2022-10-18T17:00:44.381Z,26.50
2022-10-18T17:03:10.882Z,26.48
2022-10-18T17:05:37.496Z,24.60
2022-10-18T17:08:04.246Z,26.30
2022-10-18T17:10:31.016Z,51.90
2022-10-18T17:12:57.548Z,28.85
2022-10-18T17:15:24.262Z,23.50
2022-10-18T17:17:52.116Z,23.75
2022-10-18T17:20:21.254Z,25.17
2022-10-18T17:22:47.938Z,27.55
2022-10-18T17:25:14.973Z,27.88
2022-10-18T17:27:41.816Z,19.95
2022-10-18T17:30:10.013Z,18.58
2022-10-18T17:32:36.523Z,25.48
2022-10-18T17:35:05.339Z,31.88
2022-10-18T17:37:32.411Z,17.35
2022-10-18T17:39:59.422Z,22.60
2022-10-18T17:42:25.934Z,52.55
2022-10-18T17:44:55.508Z,29.52
2022-10-18T17:49:50.669Z,18.05
2022-10-18T17:52:18.654Z,20.73
2022-10-18T17:54:45.183Z,20.65
2022-10-18T17:57:11.776Z,23.77
2022-10-18T17:59:38.400Z,25.00
2022-10-18T18:02:05.001Z,27.67
2022-10-18T18:04:31.488Z,26.00
2022-10-18T18:06:58.029Z,22.27
2022-10-18T18:09:25.910Z,26.92
2022-10-18T18:11:52.705Z,43.80
2022-10-18T18:14:19.334Z,24.00
2022-10-18T18:16:46.914Z,23.75
2022-10-18T18:19:14.504Z,24.38
2022-10-18T18:21:42.558Z,28.23
2022-10-18T18:24:09.601Z,30.92
2022-10-18T18:26:39.200Z,37.42
2022-10-18T18:29:05.955Z,37.53
2022-10-18T18:31:37.734Z,36.05
2022-10-18T18:34:06.805Z,39.70
2022-10-18T18:36:33.391Z,35.95
2022-10-18T18:39:00.021Z,37.58
2022-10-18T18:41:28.378Z,50.97
2022-10-18T18:43:58.511Z,35.08
2022-10-18T18:46:27.272Z,34.65
2022-10-18T18:48:53.953Z,41.05
2022-10-18T18:51:21.559Z,25.70
2022-10-18T18:53:48.540Z,26.52
2022-10-18T18:56:17.767Z,38.53
2022-10-18T18:58:45.194Z,45.42
2022-10-18T19:01:14.973Z,35.95
2022-10-18T19:03:41.552Z,37.30
2022-10-18T19:06:11.067Z,41.13
2022-10-18T19:08:39.231Z,37.35
2022-10-18T19:11:09.026Z,54.25
2022-10-18T19:13:36.392Z,43.03
2022-10-18T19:16:22.586Z,46.17
2022-10-18T19:18:54.041Z,40.13
2022-10-18T19:21:21.506Z,43.95
2022-10-18T19:23:48.126Z,35.00
2022-10-18T19:26:31.914Z,44.75
2022-10-18T19:29:04.914Z,30.27
2022-10-18T19:31:33.269Z,44.80
2022-10-18T19:34:00.194Z,26.33
2022-10-18T19:36:27.875Z,25.65
2022-10-18T19:38:54.588Z,26.73
2022-10-18T19:41:21.596Z,35.88
2022-10-18T19:43:48.179Z,36.20
2022-10-18T19:46:14.917Z,31.58
2022-10-18T19:48:42.880Z,31.67
2022-10-18T19:51:10.021Z,35.65
2022-10-18T19:53:37.436Z,29.27
2022-10-18T19:56:05.981Z,30.63
2022-10-18T19:58:32.917Z,31.67
2022-10-18T20:00:59.861Z,46.42
2022-10-18T20:03:27.649Z,51.80
2022-10-18T20:05:56.496Z,37.28
2022-10-18T20:08:23.410Z,32.55
2022-10-18T20:10:50.553Z,36.85
2022-10-18T20:13:17.596Z,60.38
2022-10-18T20:15:46.405Z,41.85
2022-10-18T20:18:12.930Z,65.57
2022-10-18T20:20:39.509Z,41.38
2022-10-18T20:23:07.402Z,35.65
2022-10-18T20:25:34.048Z,32.78
2022-10-18T20:28:00.621Z,43.75
2022-10-18T20:30:27.341Z,62.85
2022-10-18T20:32:53.913Z,43.58
2022-10-18T20:35:21.217Z,78.63
2022-10-18T20:37:49.060Z,53.00
2022-10-18T20:40:17.058Z,63.08
2022-10-18T20:42:43.614Z,56.97
2022-10-18T20:45:10.817Z,52.15
2022-10-18T20:47:37.319Z,44.50
2022-10-18T20:50:04.757Z,31.33
2022-10-18T20:52:31.279Z,30.92
2022-10-18T20:54:57.832Z,46.83
2022-10-18T20:57:25.766Z,27.20
2022-10-18T20:59:52.372Z,26.83
2022-10-18T21:02:18.868Z,27.20
2022-10-18T21:04:45.449Z,38.83
2022-10-18T21:07:11.950Z,50.92
2022-10-18T21:09:38.609Z,42.35
2022-10-18T21:12:05.799Z,26.75
2022-10-18T21:14:33.788Z,21.92
2022-10-18T21:17:00.291Z,23.05
2022-10-18T21:19:27.414Z,38.67
2022-10-18T21:21:56.286Z,25.00
2022-10-18T21:24:24.230Z,29.50
2022-10-18T21:26:50.736Z,21.98
2022-10-18T21:29:21.928Z,26.48
2022-10-18T21:31:53.340Z,23.45
2022-10-18T21:34:20.073Z,24.77
2022-10-18T21:36:47.730Z,32.42
2022-10-18T21:39:16.929Z,36.70
2022-10-18T21:41:44.007Z,20.15
2022-10-18T21:44:11.065Z,24.75
2022-10-18T21:46:38.595Z,28.55
2022-10-18T21:49:08.980Z,20.58
2022-10-18T21:51:35.620Z,42.10
2022-10-18T21:54:02.128Z,47.00
2022-10-18T21:56:30.713Z,31.88
2022-10-18T21:58:57.863Z,29.88
2022-10-18T22:01:26.182Z,33.35
2022-10-18T22:03:54.525Z,29.10
2022-10-18T22:06:23.429Z,24.15
2022-10-18T22:08:51.561Z,32.65
2022-10-18T22:11:20.469Z,48.42
2022-10-18T22:13:47.245Z,27.75
2022-10-18T22:16:15.820Z,48.75
2022-10-18T22:18:43.232Z,67.43
2022-10-18T22:21:11.554Z,39.30
2022-10-18T22:23:41.368Z,29.10
2022-10-18T22:26:10.616Z,36.92
2022-10-18T22:28:37.872Z,57.88
2022-10-18T22:31:04.816Z,57.42
2022-10-18T22:33:31.747Z,64.35
2022-10-18T22:35:58.393Z,29.60
2022-10-18T22:38:25.167Z,36.10
2022-10-18T22:40:53.173Z,39.05
2022-10-18T22:43:19.672Z,32.40
2022-10-18T22:45:46.207Z,31.50
2022-10-18T22:48:12.875Z,47.00
2022-10-18T22:50:39.455Z,43.75
2022-10-18T22:53:05.962Z,46.45
2022-10-18T22:55:32.620Z,23.42
2022-10-18T22:58:00.461Z,37.50
2022-10-18T23:00:27.180Z,46.45
2022-10-18T23:02:53.697Z,48.50
2022-10-18T23:05:20.268Z,25.25
2022-10-18T23:07:49.990Z,30.33
2022-10-18T23:10:17.046Z,32.05
2022-10-18T23:12:44.075Z,37.70
2022-10-18T23:15:12.259Z,23.70
2022-10-18T23:17:38.785Z,31.80
2022-10-18T23:20:05.985Z,30.60
2022-10-18T23:22:32.752Z,21.13
2022-10-18T23:24:59.503Z,43.90
2022-10-18T23:27:26.054Z,32.33
2022-10-18T23:29:52.611Z,31.92
2022-10-18T23:32:20.496Z,32.75
2022-10-18T23:34:47.042Z,35.65
2022-10-18T23:37:13.615Z,16.35
2022-10-18T23:39:40.348Z,23.08
2022-10-18T23:42:06.837Z,14.68
2022-10-18T23:44:33.520Z,22.50
2022-10-18T23:47:00.032Z,17.83
2022-10-18T23:49:27.924Z,22.63
2022-10-18T23:51:54.439Z,14.48
2022-10-18T23:54:21.223Z,21.63
2022-10-18T23:56:47.748Z,28.98
2022-10-18T23:59:14.586Z,22.88
